Terminal Aerodrome Forecast
Issued by NWS

Home | Current Version | Previous Version | Text Only | Print | Product List | Glossary On
Versions: 1 2 3 4 5 6 7 8 9 10 11 12 13 14
822
FTUS42 KMHX 281739
TAFOAJ
TAF
KOAJ 281739Z 2818/2918 23009KT P6SM VCSH SCT080
      TEMPO 2821/2824 4SM TS BKN020CB BKN090
     FM290000 22005KT P6SM VCSH FEW020 FEW250
     FM290300 VRB04KT P6SM SCT050
      AMD LTD TO CLD VIS AND WIND=

USA.gov is the U.S. government's official web portal to all federal, state and local government web resources and services.